Time;durP1;ratioP1;P1;durP2;ratioP2;P2;SDS_P1;SDS_P2;PMS_P1;PMS_P2;Temp;Humidity;BMP_temperature;BMP_pressure;BME280_temperature;BME280_humidity;BME280_pressure;Samples;Min_cycle;Max_cycle;Signal;HPM_P1;HPM_P2
2022/08/01 00:02:17;;;;;;;;;;;18.80;99.90;;;;;;4950395;28;19960;-59
2022/08/01 00:04:42;;;;;;;;;;;18.80;99.90;;;;;;4941457;28;20289;-60
2022/08/01 00:07:08;;;;;;;;;;;18.80;99.90;;;;;;4969437;28;19922;-60
2022/08/01 00:09:34;;;;;;;;;;;18.80;99.90;;;;;;4966323;28;19918;-59
2022/08/01 00:11:59;;;;;;;;;;;18.80;99.90;;;;;;4964009;28;19969;-60
2022/08/01 00:14:25;;;;;;;;;;;18.80;99.90;;;;;;4970698;28;19954;-59
2022/08/01 00:16:50;;;;;;;;;;;18.80;99.90;;;;;;4969596;28;19910;-60
2022/08/01 00:19:16;;;;;;;;;;;18.80;99.90;;;;;;4970041;28;19913;-59
2022/08/01 00:21:42;;;;;;;;;;;18.70;99.90;;;;;;4962243;28;19914;-60
2022/08/01 00:24:07;;;;;;;;;;;18.70;99.90;;;;;;4968733;28;19928;-60
2022/08/01 00:26:33;;;;;;;;;;;18.70;99.90;;;;;;4963090;28;19917;-59
2022/08/01 00:28:58;;;;;;;;;;;18.70;99.90;;;;;;4967959;28;20013;-60
2022/08/01 00:31:24;;;;;;;;;;;18.70;99.90;;;;;;4960638;28;20318;-60
2022/08/01 00:33:49;;;;;;;;;;;18.70;99.90;;;;;;4966859;28;19929;-60
2022/08/01 00:36:15;;;;;;;;;;;18.70;99.90;;;;;;4961678;28;20009;-60
2022/08/01 00:38:40;;;;;;;;;;;18.70;99.90;;;;;;4963523;28;19914;-60
2022/08/01 00:41:06;;;;;;;;;;;18.70;99.90;;;;;;4947865;28;19917;-60
2022/08/01 00:43:32;;;;;;;;;;;18.70;99.90;;;;;;4964819;28;19926;-60
2022/08/01 00:45:57;;;;;;;;;;;18.70;99.90;;;;;;4947953;28;20008;-60
2022/08/01 00:48:22;;;;;;;;;;;18.70;99.90;;;;;;4951347;28;19914;-60
2022/08/01 00:50:49;;;;;;;;;;;18.60;99.90;;;;;;4967024;28;20354;-59
2022/08/01 00:53:14;;;;;;;;;;;18.70;99.90;;;;;;4968842;28;20001;-61
2022/08/01 00:55:40;;;;;;;;;;;18.60;99.90;;;;;;4956694;28;20029;-60
2022/08/01 00:58:05;;;;;;;;;;;18.60;99.90;;;;;;4971193;28;20293;-61
2022/08/01 01:00:31;;;;;;;;;;;18.60;99.90;;;;;;4969019;28;19918;-60
2022/08/01 01:02:57;;;;;;;;;;;18.60;99.90;;;;;;4970769;28;20024;-60
2022/08/01 01:05:23;;;;;;;;;;;18.60;99.90;;;;;;4955566;28;20013;-61
2022/08/01 01:08:18;;;;;;;;;;;18.60;99.90;;;;;;4952381;28;19918;-60
2022/08/01 01:10:47;;;;;;;;;;;18.60;99.90;;;;;;4952688;28;19916;-60
2022/08/01 01:13:31;;;;;;;;;;;18.60;99.90;;;;;;4970365;28;19914;-60
2022/08/01 01:16:01;;;;;;;;;;;18.60;99.90;;;;;;4968728;28;19911;-60
2022/08/01 01:18:37;;;;;;;;;;;18.70;99.90;;;;;;4970852;28;19917;-60
2022/08/01 01:21:18;;;;;;;;;;;18.70;99.90;;;;;;4947500;28;19914;-60
2022/08/01 01:24:02;;;;;;;;;;;18.70;99.90;;;;;;4934881;29;20058;-60
2022/08/01 01:26:33;;;;;;;;;;;18.60;99.90;;;;;;4928924;29;20295;-60
2022/08/01 01:29:04;;;;;;;;;;;18.60;99.90;;;;;;4931890;29;20006;-60
2022/08/01 01:31:32;;;;;;;;;;;18.70;99.90;;;;;;4934085;29;19914;-60
2022/08/01 01:33:59;;;;;;;;;;;18.70;99.90;;;;;;4929715;29;20327;-60
2022/08/01 01:36:25;;;;;;;;;;;18.60;99.90;;;;;;4929383;29;20002;-60
2022/08/01 01:38:52;;;;;;;;;;;18.60;99.90;;;;;;4929271;29;19911;-60
2022/08/01 01:41:18;;;;;;;;;;;18.60;99.90;;;;;;4923478;29;19918;-60
2022/08/01 01:43:44;;;;;;;;;;;18.60;99.90;;;;;;4932388;29;19914;-61
2022/08/01 01:46:12;;;;;;;;;;;18.60;99.90;;;;;;4931196;29;19919;-60
2022/08/01 01:48:38;;;;;;;;;;;18.60;99.90;;;;;;4929847;29;19915;-60
2022/08/01 01:51:04;;;;;;;;;;;18.60;99.90;;;;;;4927216;29;19962;-61
2022/08/01 01:53:31;;;;;;;;;;;18.60;99.90;;;;;;4929523;29;19968;-60
2022/08/01 01:55:58;;;;;;;;;;;18.60;99.90;;;;;;4929715;29;20359;-60
2022/08/01 01:58:25;;;;;;;;;;;18.60;99.90;;;;;;4933819;29;20042;-60
2022/08/01 02:00:52;;;;;;;;;;;18.60;99.90;;;;;;4927086;29;19914;-60
2022/08/01 02:03:18;;;;;;;;;;;18.60;99.90;;;;;;4932125;29;20050;-61
2022/08/01 02:05:44;;;;;;;;;;;18.60;99.90;;;;;;4933329;29;19958;-60
2022/08/01 02:08:12;;;;;;;;;;;18.60;99.90;;;;;;4930584;29;20364;-61
2022/08/01 02:10:39;;;;;;;;;;;18.60;99.90;;;;;;4930711;29;19910;-61
2022/08/01 02:13:04;;;;;;;;;;;18.60;99.90;;;;;;4926314;29;19934;-62
2022/08/01 02:15:31;;;;;;;;;;;18.60;99.90;;;;;;4930667;29;19911;-61
2022/08/01 02:17:57;;;;;;;;;;;18.60;99.90;;;;;;4930974;29;20406;-61
2022/08/01 02:20:24;;;;;;;;;;;18.60;99.90;;;;;;4933633;29;19937;-61
2022/08/01 02:22:52;;;;;;;;;;;18.60;99.90;;;;;;4928859;28;20001;-61
2022/08/01 02:25:21;;;;;;;;;;;18.60;99.90;;;;;;4967567;28;19922;-60
2022/08/01 02:28:05;;;;;;;;;;;18.60;99.90;;;;;;4959782;28;19917;-61
2022/08/01 02:30:33;;;;;;;;;;;18.50;99.90;;;;;;4970121;28;19910;-61
2022/08/01 02:33:09;;;;;;;;;;;18.50;99.90;;;;;;4966829;28;19913;-61
2022/08/01 02:35:37;;;;;;;;;;;18.50;99.90;;;;;;4967544;28;19918;-61
2022/08/01 02:38:03;;;;;;;;;;;18.60;99.90;;;;;;4966066;28;20283;-61
2022/08/01 02:40:32;;;;;;;;;;;18.60;99.90;;;;;;4945944;29;20399;-60
2022/08/01 02:42:59;;;;;;;;;;;18.60;99.90;;;;;;4967381;28;20346;-61
2022/08/01 02:45:25;;;;;;;;;;;18.50;99.90;;;;;;4970166;28;19914;-61
2022/08/01 02:47:51;;;;;;;;;;;18.60;99.90;;;;;;4961378;28;20326;-61
2022/08/01 02:50:17;;;;;;;;;;;18.60;99.90;;;;;;4965177;28;19998;-61
2022/08/01 02:52:45;;;;;;;;;;;18.60;99.90;;;;;;4962863;28;19923;-61
2022/08/01 02:55:11;;;;;;;;;;;18.50;99.90;;;;;;4967861;28;19921;-61
2022/08/01 02:57:37;;;;;;;;;;;18.50;99.90;;;;;;4969045;28;19913;-62
2022/08/01 03:00:04;;;;;;;;;;;18.50;99.90;;;;;;4971062;28;19910;-61
2022/08/01 03:02:30;;;;;;;;;;;18.50;99.90;;;;;;4967099;28;19936;-61
2022/08/01 03:04:57;;;;;;;;;;;18.60;99.90;;;;;;4965805;28;19989;-61
2022/08/01 03:07:23;;;;;;;;;;;18.50;99.90;;;;;;4971893;28;19918;-61
2022/08/01 03:09:49;;;;;;;;;;;18.60;99.90;;;;;;4968533;28;19921;-61
2022/08/01 03:12:17;;;;;;;;;;;18.60;99.90;;;;;;4949476;28;20441;-61
2022/08/01 03:14:44;;;;;;;;;;;18.50;99.90;;;;;;4969628;28;19916;-61
2022/08/01 03:17:11;;;;;;;;;;;18.50;99.90;;;;;;4968973;28;19922;-60
2022/08/01 03:19:38;;;;;;;;;;;18.50;99.90;;;;;;4969784;28;19910;-60
2022/08/01 03:22:06;;;;;;;;;;;18.50;99.90;;;;;;4964062;28;19917;-61
2022/08/01 03:24:32;;;;;;;;;;;18.50;99.90;;;;;;4970504;28;19922;-61
2022/08/01 03:26:58;;;;;;;;;;;18.30;99.90;;;;;;4963485;28;19906;-60
2022/08/01 03:29:25;;;;;;;;;;;18.30;99.90;;;;;;4966031;28;20389;-60
2022/08/01 03:31:51;;;;;;;;;;;18.20;99.90;;;;;;4964532;28;20021;-60
2022/08/01 03:34:17;;;;;;;;;;;18.20;99.90;;;;;;4969946;28;20013;-60
2022/08/01 03:37:02;;;;;;;;;;;18.20;99.90;;;;;;4969429;28;19953;-60
2022/08/01 03:39:36;;;;;;;;;;;18.20;99.90;;;;;;4967036;28;19946;-60
2022/08/01 03:42:07;;;;;;;;;;;18.20;99.90;;;;;;4967157;28;20352;-60
2022/08/01 03:44:35;;;;;;;;;;;18.20;99.90;;;;;;4966320;28;19918;-60
2022/08/01 03:47:04;;;;;;;;;;;18.20;99.90;;;;;;4963011;28;19915;-60
2022/08/01 03:49:30;;;;;;;;;;;18.20;99.90;;;;;;4961446;28;20412;-60
2022/08/01 03:51:56;;;;;;;;;;;18.20;99.90;;;;;;4967282;28;19910;-60
2022/08/01 03:54:24;;;;;;;;;;;18.20;99.90;;;;;;4966661;28;20001;-61
2022/08/01 03:56:51;;;;;;;;;;;18.20;99.90;;;;;;4966503;28;19949;-60
2022/08/01 03:59:17;;;;;;;;;;;18.20;99.90;;;;;;4969551;28;19914;-60
2022/08/01 04:01:43;;;;;;;;;;;18.20;99.90;;;;;;4962073;28;20001;-61
2022/08/01 04:04:09;;;;;;;;;;;18.20;99.90;;;;;;4961957;28;19987;-60
2022/08/01 04:06:37;;;;;;;;;;;18.30;99.90;;;;;;4966164;28;19926;-60
2022/08/01 04:09:03;;;;;;;;;;;18.20;99.90;;;;;;4965403;28;20355;-60
2022/08/01 04:11:28;;;;;;;;;;;18.20;99.90;;;;;;4968674;28;19964;-60
2022/08/01 04:13:55;;;;;;;;;;;18.30;99.90;;;;;;4968195;28;20001;-60
2022/08/01 04:16:21;;;;;;;;;;;18.20;99.90;;;;;;4965013;28;19917;-61
2022/08/01 04:18:46;;;;;;;;;;;18.30;99.90;;;;;;4969726;28;19924;-60
2022/08/01 04:21:13;;;;;;;;;;;18.30;99.90;;;;;;4961257;28;19914;-60
2022/08/01 04:23:40;;;;;;;;;;;18.30;99.90;;;;;;4958312;28;20314;-60
2022/08/01 04:26:06;;;;;;;;;;;18.20;99.90;;;;;;4960619;28;19933;-60
2022/08/01 04:28:33;;;;;;;;;;;18.30;99.90;;;;;;4957315;28;19918;-61
2022/08/01 04:30:59;;;;;;;;;;;18.20;99.90;;;;;;4955823;28;19911;-61
2022/08/01 04:33:25;;;;;;;;;;;18.30;99.90;;;;;;4938171;28;19918;-60
2022/08/01 04:35:51;;;;;;;;;;;18.30;99.90;;;;;;4956257;28;20435;-61
2022/08/01 04:38:19;;;;;;;;;;;18.30;99.90;;;;;;4956533;28;20362;-60
2022/08/01 04:40:47;;;;;;;;;;;18.30;99.90;;;;;;4957728;28;19957;-61
2022/08/01 04:43:13;;;;;;;;;;;18.30;99.90;;;;;;4946013;28;19942;-61
2022/08/01 04:45:39;;;;;;;;;;;18.20;99.90;;;;;;4967377;28;19914;-61
2022/08/01 04:48:06;;;;;;;;;;;18.20;99.90;;;;;;4964306;28;20354;-62
2022/08/01 04:50:32;;;;;;;;;;;18.20;99.90;;;;;;4962482;28;19946;-62
2022/08/01 04:52:57;;;;;;;;;;;18.30;99.90;;;;;;4957191;28;19910;-62
2022/08/01 04:55:23;;;;;;;;;;;18.30;99.90;;;;;;4961750;28;20373;-62
2022/08/01 04:57:48;;;;;;;;;;;18.30;99.90;;;;;;4940416;28;19910;-62
2022/08/01 05:00:16;;;;;;;;;;;18.30;99.90;;;;;;4966515;28;19910;-63
2022/08/01 05:02:41;;;;;;;;;;;18.40;99.90;;;;;;4960944;28;19917;-62
2022/08/01 05:05:07;;;;;;;;;;;18.30;99.90;;;;;;4967978;28;20016;-62
2022/08/01 05:07:35;;;;;;;;;;;18.30;99.90;;;;;;4963811;28;19917;-62
2022/08/01 05:10:02;;;;;;;;;;;18.40;99.90;;;;;;4962450;28;19910;-62
2022/08/01 05:12:28;;;;;;;;;;;18.40;99.90;;;;;;4966219;28;19918;-63
2022/08/01 05:14:54;;;;;;;;;;;18.40;99.90;;;;;;4970082;28;20368;-60
2022/08/01 05:17:20;;;;;;;;;;;18.50;99.90;;;;;;4962708;28;19914;-60
2022/08/01 05:19:45;;;;;;;;;;;18.60;99.90;;;;;;4959535;28;20267;-60
2022/08/01 05:22:11;;;;;;;;;;;18.60;99.90;;;;;;4960352;28;19917;-59
2022/08/01 05:24:38;;;;;;;;;;;18.60;99.90;;;;;;4959127;28;20366;-60
2022/08/01 05:27:03;;;;;;;;;;;18.60;99.90;;;;;;4942242;28;20354;-63
2022/08/01 05:29:29;;;;;;;;;;;18.60;99.90;;;;;;4947056;28;19926;-63
2022/08/01 05:31:56;;;;;;;;;;;18.70;99.90;;;;;;4967208;28;19914;-63
2022/08/01 05:34:22;;;;;;;;;;;18.70;99.90;;;;;;4971102;28;20000;-63
2022/08/01 05:36:47;;;;;;;;;;;18.70;99.90;;;;;;4954841;28;20009;-61
2022/08/01 05:39:13;;;;;;;;;;;18.70;99.90;;;;;;4953560;28;19917;-62
2022/08/01 05:41:39;;;;;;;;;;;18.70;99.90;;;;;;4969072;28;19910;-62
2022/08/01 05:44:05;;;;;;;;;;;18.60;99.90;;;;;;4966433;28;19953;-61
2022/08/01 05:46:31;;;;;;;;;;;18.70;99.90;;;;;;4963052;28;19917;-63
2022/08/01 05:48:57;;;;;;;;;;;18.70;99.90;;;;;;4957200;28;19961;-63
2022/08/01 05:51:22;;;;;;;;;;;18.80;99.90;;;;;;4959778;28;19921;-64
2022/08/01 05:53:48;;;;;;;;;;;18.90;99.90;;;;;;4963423;28;19961;-63
2022/08/01 05:56:13;;;;;;;;;;;18.90;99.90;;;;;;4956851;28;20192;-63
2022/08/01 05:58:39;;;;;;;;;;;19.00;99.90;;;;;;4960322;28;19916;-63
2022/08/01 06:01:05;;;;;;;;;;;19.00;99.90;;;;;;4965112;28;19914;-61
2022/08/01 06:03:31;;;;;;;;;;;19.00;99.90;;;;;;4949063;28;19924;-62
2022/08/01 06:05:57;;;;;;;;;;;19.10;99.90;;;;;;4942760;28;19918;-63
2022/08/01 06:08:22;;;;;;;;;;;19.10;99.90;;;;;;4964476;28;19921;-62
2022/08/01 06:10:48;;;;;;;;;;;19.30;99.90;;;;;;4964221;28;20446;-63
2022/08/01 06:13:14;;;;;;;;;;;19.30;99.90;;;;;;4947851;28;20361;-63
2022/08/01 06:15:39;;;;;;;;;;;19.20;99.90;;;;;;4961760;28;20009;-63
2022/08/01 06:18:05;;;;;;;;;;;19.10;99.90;;;;;;4956603;28;19914;-63
2022/08/01 06:20:30;;;;;;;;;;;19.10;99.90;;;;;;4967723;28;19914;-63
2022/08/01 06:22:56;;;;;;;;;;;19.10;99.90;;;;;;4955847;28;19953;-63
2022/08/01 06:25:22;;;;;;;;;;;19.10;99.90;;;;;;4960576;28;20009;-62
2022/08/01 06:27:48;;;;;;;;;;;19.20;99.90;;;;;;4962001;28;19910;-62
2022/08/01 06:30:13;;;;;;;;;;;19.20;99.90;;;;;;4968550;28;19906;-62
2022/08/01 06:32:39;;;;;;;;;;;19.20;99.90;;;;;;4946021;28;19925;-63
2022/08/01 06:35:04;;;;;;;;;;;19.40;99.90;;;;;;4967539;28;19913;-63
2022/08/01 06:37:30;;;;;;;;;;;19.60;99.90;;;;;;4947368;28;19918;-63
2022/08/01 06:39:59;;;;;;;;;;;19.60;99.90;;;;;;4949149;28;19957;-63
2022/08/01 06:42:25;;;;;;;;;;;19.60;99.90;;;;;;4964786;28;20405;-63
2022/08/01 06:44:50;;;;;;;;;;;19.70;99.90;;;;;;4960964;28;19945;-63
2022/08/01 06:47:16;;;;;;;;;;;19.70;99.90;;;;;;4966662;28;19992;-61
2022/08/01 06:49:41;;;;;;;;;;;19.50;99.90;;;;;;4961356;28;19918;-61
2022/08/01 06:52:07;;;;;;;;;;;19.50;99.90;;;;;;4967783;28;19910;-61
2022/08/01 06:54:33;;;;;;;;;;;19.40;99.90;;;;;;4963847;28;19906;-62
2022/08/01 06:56:58;;;;;;;;;;;19.60;99.90;;;;;;4961309;28;19906;-62
2022/08/01 06:59:24;;;;;;;;;;;19.60;99.90;;;;;;4966020;28;19922;-62
2022/08/01 07:01:49;;;;;;;;;;;19.70;99.90;;;;;;4964648;28;19953;-62
2022/08/01 07:04:15;;;;;;;;;;;19.70;99.90;;;;;;4966326;28;19916;-62
2022/08/01 07:06:40;;;;;;;;;;;19.80;99.90;;;;;;4964138;28;19915;-62
2022/08/01 07:09:06;;;;;;;;;;;20.00;99.90;;;;;;4970858;28;19949;-62
2022/08/01 07:11:31;;;;;;;;;;;20.10;99.90;;;;;;4949950;28;20285;-62
2022/08/01 07:13:57;;;;;;;;;;;20.20;99.90;;;;;;4970557;28;19934;-62
2022/08/01 07:16:22;;;;;;;;;;;20.20;99.90;;;;;;4963078;28;20408;-62
2022/08/01 07:18:48;;;;;;;;;;;20.30;99.90;;;;;;4965902;28;19906;-62
2022/08/01 07:21:13;;;;;;;;;;;20.30;99.90;;;;;;4960079;28;19910;-62
2022/08/01 07:23:39;;;;;;;;;;;20.20;99.90;;;;;;4958801;28;19922;-62
2022/08/01 07:26:04;;;;;;;;;;;20.20;99.90;;;;;;4959631;28;20377;-62
2022/08/01 07:28:30;;;;;;;;;;;20.10;99.90;;;;;;4958865;28;19917;-62
2022/08/01 07:30:55;;;;;;;;;;;20.10;99.90;;;;;;4955265;28;19910;-62
2022/08/01 07:33:22;;;;;;;;;;;20.20;99.90;;;;;;4958932;28;19915;-62
2022/08/01 07:35:48;;;;;;;;;;;20.30;99.90;;;;;;4957942;28;19917;-64
2022/08/01 07:38:14;;;;;;;;;;;20.50;99.90;;;;;;4964219;28;20270;-62
2022/08/01 07:40:40;;;;;;;;;;;20.60;99.90;;;;;;4955361;28;20303;-62
2022/08/01 07:43:05;;;;;;;;;;;20.80;99.90;;;;;;4948370;28;19937;-61
2022/08/01 07:45:31;;;;;;;;;;;20.80;99.90;;;;;;4959881;28;20388;-61
2022/08/01 07:48:01;;;;;;;;;;;20.80;99.90;;;;;;4956948;28;19910;-61
2022/08/01 07:50:26;;;;;;;;;;;20.90;99.90;;;;;;4958496;28;19906;-61
2022/08/01 07:52:52;;;;;;;;;;;20.80;99.90;;;;;;4954705;28;19937;-61
2022/08/01 07:55:17;;;;;;;;;;;21.00;99.90;;;;;;4944569;28;19906;-61
2022/08/01 07:57:43;;;;;;;;;;;20.90;99.90;;;;;;4954994;28;19906;-62
2022/08/01 08:00:09;;;;;;;;;;;21.30;99.90;;;;;;4959693;28;19906;-62
2022/08/01 08:02:35;;;;;;;;;;;21.70;99.90;;;;;;4957035;28;20270;-61
2022/08/01 08:05:00;;;;;;;;;;;21.70;99.90;;;;;;4958820;28;19914;-62
2022/08/01 08:07:26;;;;;;;;;;;21.70;99.90;;;;;;4958322;28;20430;-61
2022/08/01 08:09:51;;;;;;;;;;;21.60;99.90;;;;;;4961456;28;20286;-61
2022/08/01 08:12:17;;;;;;;;;;;21.80;99.90;;;;;;4962292;28;20314;-61
2022/08/01 08:14:42;;;;;;;;;;;21.70;99.90;;;;;;4963914;28;19914;-61
2022/08/01 08:17:08;;;;;;;;;;;21.20;99.90;;;;;;4941909;28;20363;-61
2022/08/01 08:19:36;;;;;;;;;;;21.20;99.90;;;;;;4956990;28;19907;-61
2022/08/01 08:22:02;;;;;;;;;;;21.20;99.90;;;;;;4957818;28;19922;-62
2022/08/01 08:24:28;;;;;;;;;;;21.90;99.90;;;;;;4959049;28;19918;-62
2022/08/01 08:26:55;;;;;;;;;;;22.40;99.90;;;;;;4955019;28;19915;-62
2022/08/01 08:29:21;;;;;;;;;;;23.00;99.90;;;;;;4961846;28;19910;-61
2022/08/01 08:31:47;;;;;;;;;;;22.80;99.90;;;;;;4955907;28;19913;-62
2022/08/01 08:34:12;;;;;;;;;;;22.30;99.90;;;;;;4957738;28;19918;-62
2022/08/01 08:36:38;;;;;;;;;;;22.40;99.90;;;;;;4957539;28;19910;-61
2022/08/01 08:39:04;;;;;;;;;;;22.40;99.90;;;;;;4957361;28;19945;-62
2022/08/01 08:41:30;;;;;;;;;;;22.00;99.90;;;;;;4958048;28;20396;-61
2022/08/01 08:43:58;;;;;;;;;;;21.80;99.90;;;;;;4956829;28;20025;-62
2022/08/01 08:46:24;;;;;;;;;;;22.00;99.90;;;;;;4954754;28;19938;-62
2022/08/01 08:48:51;;;;;;;;;;;22.20;99.90;;;;;;4957106;28;20001;-60
2022/08/01 08:51:17;;;;;;;;;;;22.90;99.90;;;;;;4957765;28;19907;-60
2022/08/01 08:53:44;;;;;;;;;;;23.10;99.90;;;;;;4960740;28;19914;-60
2022/08/01 08:56:13;;;;;;;;;;;23.00;99.90;;;;;;4954073;28;19937;-60
2022/08/01 08:58:40;;;;;;;;;;;22.50;99.90;;;;;;4958693;28;19913;-61
2022/08/01 09:01:08;;;;;;;;;;;22.30;99.90;;;;;;4937658;28;19906;-61
2022/08/01 09:03:34;;;;;;;;;;;22.30;99.90;;;;;;4959018;28;19914;-60
2022/08/01 09:05:59;;;;;;;;;;;22.30;99.90;;;;;;4954395;28;20286;-60
2022/08/01 09:08:25;;;;;;;;;;;22.00;99.90;;;;;;4949149;28;19957;-61
2022/08/01 09:10:50;;;;;;;;;;;22.40;99.90;;;;;;4960781;28;20001;-61
2022/08/01 09:13:16;;;;;;;;;;;23.40;99.90;;;;;;4968231;28;20409;-59
2022/08/01 09:15:43;;;;;;;;;;;24.20;99.90;;;;;;4963988;28;20523;-61
2022/08/01 09:18:24;;;;;;;;;;;25.00;99.90;;;;;;4961657;28;19968;-61
2022/08/01 09:20:50;;;;;;;;;;;25.00;99.90;;;;;;4961188;28;19906;-59
2022/08/01 09:23:36;;;;;;;;;;;25.10;99.90;;;;;;4961554;28;19922;-60
2022/08/01 09:26:01;;;;;;;;;;;24.90;99.90;;;;;;4959122;28;20626;-59
2022/08/01 09:28:28;;;;;;;;;;;25.00;99.90;;;;;;4944107;29;20005;-60
2022/08/01 09:30:55;;;;;;;;;;;24.50;99.90;;;;;;4961141;28;19913;-60
2022/08/01 09:33:20;;;;;;;;;;;24.40;99.90;;;;;;4964402;28;19910;-60
2022/08/01 09:35:53;;;;;;;;;;;24.00;99.90;;;;;;4939808;28;20009;-60
2022/08/01 09:38:20;;;;;;;;;;;24.10;99.90;;;;;;4955599;28;19907;-61
2022/08/01 09:40:50;;;;;;;;;;;24.00;99.90;;;;;;4959662;28;19907;-61
2022/08/01 09:43:16;;;;;;;;;;;24.70;99.90;;;;;;4961107;28;20005;-60
2022/08/01 09:45:41;;;;;;;;;;;25.30;99.90;;;;;;4958954;28;19934;-60
2022/08/01 09:48:11;;;;;;;;;;;25.50;99.90;;;;;;4950316;28;19964;-60
2022/08/01 09:50:45;;;;;;;;;;;25.50;99.90;;;;;;4961568;28;19973;-60
2022/08/01 09:53:10;;;;;;;;;;;25.40;99.90;;;;;;4962786;28;19914;-60
2022/08/01 09:55:37;;;;;;;;;;;24.70;99.90;;;;;;4958538;28;20461;-60
2022/08/01 09:58:04;;;;;;;;;;;23.80;99.90;;;;;;4951970;28;19914;-59
2022/08/01 10:00:30;;;;;;;;;;;23.50;99.90;;;;;;4960971;28;19932;-60
2022/08/01 10:02:55;;;;;;;;;;;23.30;99.90;;;;;;4959753;28;19906;-60
2022/08/01 10:05:34;;;;;;;;;;;23.40;99.90;;;;;;4962399;28;19918;-60
2022/08/01 10:08:01;;;;;;;;;;;23.90;99.90;;;;;;4965188;28;20370;-60
2022/08/01 10:10:27;;;;;;;;;;;24.00;99.90;;;;;;4960262;28;19948;-60
2022/08/01 10:12:54;;;;;;;;;;;24.50;99.90;;;;;;4967967;28;19949;-60
2022/08/01 10:15:20;;;;;;;;;;;25.40;99.90;;;;;;4949110;28;19907;-60
2022/08/01 10:17:51;;;;;;;;;;;26.10;99.90;;;;;;4962024;28;19932;-60
2022/08/01 10:20:19;;;;;;;;;;;26.90;99.90;;;;;;4963973;28;19910;-60
2022/08/01 10:22:45;;;;;;;;;;;27.00;99.90;;;;;;4959698;28;20284;-60
2022/08/01 10:25:12;;;;;;;;;;;26.30;99.90;;;;;;4958927;28;19914;-60
2022/08/01 10:27:38;;;;;;;;;;;25.70;99.90;;;;;;4958673;28;19996;-60
2022/08/01 10:30:05;;;;;;;;;;;25.00;99.90;;;;;;4960200;28;20363;-60
2022/08/01 10:32:32;;;;;;;;;;;24.60;99.90;;;;;;4959579;28;19910;-60
2022/08/01 10:34:58;;;;;;;;;;;24.60;99.90;;;;;;4948768;28;19937;-60
2022/08/01 10:37:24;;;;;;;;;;;24.80;99.90;;;;;;4958677;28;19911;-61
2022/08/01 10:39:50;;;;;;;;;;;25.40;99.90;;;;;;4962632;28;19913;-60
2022/08/01 10:42:17;;;;;;;;;;;25.70;99.90;;;;;;4959775;28;19907;-60
2022/08/01 10:44:46;;;;;;;;;;;25.50;99.90;;;;;;4959536;28;19913;-60
2022/08/01 10:47:12;;;;;;;;;;;25.00;99.90;;;;;;4962289;28;19906;-60
2022/08/01 10:49:49;;;;;;;;;;;24.90;99.90;;;;;;4960396;28;20282;-60
2022/08/01 10:52:15;;;;;;;;;;;24.40;99.90;;;;;;4957690;28;19906;-60
2022/08/01 10:54:41;;;;;;;;;;;24.20;99.90;;;;;;4946915;28;19989;-60
2022/08/01 10:57:06;;;;;;;;;;;24.20;99.90;;;;;;4946289;28;19969;-60
2022/08/01 10:59:33;;;;;;;;;;;24.30;99.90;;;;;;4957429;28;19937;-60
2022/08/01 11:02:00;;;;;;;;;;;24.30;99.90;;;;;;4959868;28;20371;-60
2022/08/01 11:04:42;;;;;;;;;;;24.40;99.90;;;;;;4958813;28;19921;-60
2022/08/01 11:07:13;;;;;;;;;;;24.60;99.90;;;;;;4961786;28;19925;-60
2022/08/01 11:09:47;;;;;;;;;;;24.30;99.90;;;;;;4956923;28;20145;-60
2022/08/01 11:12:17;;;;;;;;;;;24.40;99.90;;;;;;4963593;28;19910;-60
2022/08/01 11:15:16;;;;;;;;;;;24.50;99.90;;;;;;4950081;28;19953;-60
2022/08/01 11:17:49;;;;;;;;;;;24.40;99.90;;;;;;4946661;28;20428;-59
2022/08/01 11:20:16;;;;;;;;;;;25.10;99.90;;;;;;4941122;28;19910;-60
2022/08/01 11:22:57;;;;;;;;;;;24.80;99.90;;;;;;4956242;28;19918;-60
2022/08/01 11:25:23;;;;;;;;;;;24.30;99.90;;;;;;4959567;28;20376;-61
2022/08/01 11:27:48;;;;;;;;;;;24.40;99.90;;;;;;4956937;28;20025;-60
2022/08/01 11:30:14;;;;;;;;;;;24.40;99.90;;;;;;4957444;28;19907;-60
2022/08/01 11:32:47;;;;;;;;;;;25.00;99.90;;;;;;4946347;28;20285;-60
2022/08/01 11:35:13;;;;;;;;;;;25.60;99.90;;;;;;4957754;28;20125;-60
2022/08/01 11:37:38;;;;;;;;;;;26.00;99.90;;;;;;4947958;28;19940;-60
2022/08/01 11:40:26;;;;;;;;;;;26.20;99.90;;;;;;4959840;28;19997;-60
2022/08/01 11:43:11;;;;;;;;;;;25.90;99.90;;;;;;4958216;28;19945;-60
2022/08/01 11:45:49;;;;;;;;;;;26.30;99.90;;;;;;4963381;28;19910;-60
2022/08/01 11:48:22;;;;;;;;;;;26.90;99.90;;;;;;4943477;29;20189;-60
2022/08/01 11:50:49;;;;;;;;;;;26.40;99.90;;;;;;4957223;28;19906;-61
2022/08/01 11:53:15;;;;;;;;;;;26.30;99.90;;;;;;4960289;28;19944;-60
2022/08/01 11:55:48;;;;;;;;;;;26.50;99.90;;;;;;4955248;28;19942;-61
2022/08/01 11:58:14;;;;;;;;;;;26.30;99.90;;;;;;4957635;28;19910;-60
2022/08/01 12:00:39;;;;;;;;;;;26.60;99.90;;;;;;4958816;28;19907;-60
2022/08/01 12:03:06;;;;;;;;;;;26.30;99.90;;;;;;4954815;28;20294;-60
2022/08/01 12:05:33;;;;;;;;;;;25.50;99.90;;;;;;4957529;28;19919;-60
2022/08/01 12:07:59;;;;;;;;;;;25.00;99.90;;;;;;4963603;28;19906;-60
2022/08/01 12:10:26;;;;;;;;;;;24.90;99.90;;;;;;4958992;28;19910;-61
2022/08/01 12:12:58;;;;;;;;;;;24.90;99.90;;;;;;4957610;28;19906;-61
2022/08/01 12:15:24;;;;;;;;;;;25.20;99.90;;;;;;4966845;28;19992;-60
2022/08/01 12:17:55;;;;;;;;;;;25.30;99.90;;;;;;4957466;28;20402;-60
2022/08/01 12:20:21;;;;;;;;;;;26.60;99.90;;;;;;4941926;28;20282;-60
2022/08/01 12:22:47;;;;;;;;;;;27.90;99.90;;;;;;4957464;28;20004;-60
2022/08/01 12:25:14;;;;;;;;;;;29.20;99.70;;;;;;4961377;28;20275;-60
2022/08/01 12:27:40;;;;;;;;;;;29.60;97.20;;;;;;4955443;28;19907;-61
2022/08/01 12:30:07;;;;;;;;;;;29.50;97.30;;;;;;4963489;28;20380;-60
2022/08/01 12:32:36;;;;;;;;;;;28.50;97.10;;;;;;4945786;28;19941;-60
2022/08/01 12:35:01;;;;;;;;;;;27.20;99.90;;;;;;4952063;28;20009;-60
2022/08/01 12:37:27;;;;;;;;;;;26.20;99.90;;;;;;4959595;28;20004;-60
2022/08/01 12:39:53;;;;;;;;;;;25.40;99.90;;;;;;4958219;28;20012;-60
2022/08/01 12:42:18;;;;;;;;;;;24.60;99.90;;;;;;4955547;28;19922;-60
2022/08/01 12:44:45;;;;;;;;;;;25.00;99.90;;;;;;4958688;28;19910;-61
2022/08/01 12:47:12;;;;;;;;;;;26.20;99.90;;;;;;4957494;28;19949;-60
2022/08/01 12:49:38;;;;;;;;;;;27.30;99.90;;;;;;4959510;28;19913;-60
2022/08/01 12:52:04;;;;;;;;;;;27.60;99.90;;;;;;4955721;28;20298;-60
2022/08/01 12:54:30;;;;;;;;;;;27.30;99.90;;;;;;4941961;28;19917;-60
2022/08/01 12:56:56;;;;;;;;;;;27.50;99.90;;;;;;4958288;28;20380;-60
2022/08/01 12:59:26;;;;;;;;;;;27.40;99.90;;;;;;4956343;28;19934;-60
2022/08/01 13:01:53;;;;;;;;;;;28.20;99.90;;;;;;4957557;28;19912;-60
2022/08/01 13:04:19;;;;;;;;;;;28.30;99.70;;;;;;4956020;28;19915;-61
2022/08/01 13:06:45;;;;;;;;;;;28.40;99.80;;;;;;4959974;28;19937;-60
2022/08/01 13:09:13;;;;;;;;;;;27.60;99.80;;;;;;4963754;28;19972;-60
2022/08/01 13:11:43;;;;;;;;;;;26.60;99.90;;;;;;4956257;28;19906;-60
2022/08/01 13:14:08;;;;;;;;;;;26.10;99.90;;;;;;4968354;28;19916;-60
2022/08/01 13:16:45;;;;;;;;;;;25.70;99.90;;;;;;4957795;28;20282;-60
2022/08/01 13:19:10;;;;;;;;;;;26.20;99.90;;;;;;4956850;28;19911;-59
2022/08/01 13:21:36;;;;;;;;;;;28.50;99.90;;;;;;4956172;28;19929;-60
2022/08/01 13:24:02;;;;;;;;;;;28.80;98.90;;;;;;4956243;28;20213;-60
2022/08/01 13:26:42;;;;;;;;;;;27.60;97.50;;;;;;4955401;28;19985;-60
2022/08/01 13:29:09;;;;;;;;;;;26.90;99.50;;;;;;4960127;28;20375;-60
2022/08/01 13:31:35;;;;;;;;;;;26.30;99.90;;;;;;4959728;28;20353;-62
2022/08/01 13:34:01;;;;;;;;;;;25.90;99.90;;;;;;4953991;28;19917;-62
2022/08/01 13:36:28;;;;;;;;;;;25.70;99.90;;;;;;4961195;28;20294;-62
2022/08/01 13:41:38;;;;;;;;;;;26.20;99.90;;;;;;4960569;28;20025;-62
2022/08/01 13:44:03;;;;;;;;;;;26.20;99.90;;;;;;4954088;28;20023;-62
2022/08/01 13:46:29;;;;;;;;;;;26.20;99.90;;;;;;4962790;28;20543;-62
2022/08/01 13:48:54;;;;;;;;;;;27.30;99.90;;;;;;4957010;28;19945;-62
2022/08/01 13:51:20;;;;;;;;;;;28.10;99.50;;;;;;4962027;28;19922;-62
2022/08/01 13:53:45;;;;;;;;;;;28.50;98.20;;;;;;4955908;28;19906;-63
2022/08/01 13:56:11;;;;;;;;;;;29.40;95.80;;;;;;4956599;28;19926;-62
2022/08/01 13:58:36;;;;;;;;;;;30.30;95.10;;;;;;4962172;28;19906;-62
2022/08/01 14:01:02;;;;;;;;;;;30.00;93.40;;;;;;4962624;28;19921;-62
2022/08/01 14:03:28;;;;;;;;;;;29.10;94.90;;;;;;4960894;28;19914;-62
2022/08/01 14:05:53;;;;;;;;;;;28.50;95.80;;;;;;4960515;28;19992;-62
2022/08/01 14:08:19;;;;;;;;;;;27.60;95.60;;;;;;4958299;28;20354;-62
2022/08/01 14:10:44;;;;;;;;;;;26.60;97.10;;;;;;4958088;28;19910;-62
2022/08/01 14:13:10;;;;;;;;;;;26.00;99.10;;;;;;4965931;28;19906;-62
2022/08/01 14:15:35;;;;;;;;;;;25.20;99.90;;;;;;4964873;28;19945;-60
2022/08/01 14:18:01;;;;;;;;;;;25.10;99.90;;;;;;4958633;28;19914;-60
2022/08/01 14:20:27;;;;;;;;;;;25.70;99.90;;;;;;4960220;28;20313;-60